sensor_id;sensor_type;location;lat;lon;timestamp;pressure;altitude;pressure_sealevel;temperature
18474;BMP180;30265;52.408;13.500;2023-02-28T00:03:30;103538.00;;;6.60
18474;BMP180;30265;52.408;13.500;2023-02-28T00:13:56;103533.00;;;6.60
18474;BMP180;30265;52.408;13.500;2023-02-28T00:24:19;103545.00;;;6.60
18474;BMP180;30265;52.408;13.500;2023-02-28T00:34:42;103542.00;;;6.70
18474;BMP180;30265;52.408;13.500;2023-02-28T00:45:05;103538.00;;;6.60
18474;BMP180;30265;52.408;13.500;2023-02-28T00:55:32;103533.00;;;6.40
18474;BMP180;30265;52.408;13.500;2023-02-28T01:05:54;103536.00;;;6.40
18474;BMP180;30265;52.408;13.500;2023-02-28T01:16:18;103542.00;;;6.30
18474;BMP180;30265;52.408;13.500;2023-02-28T01:26:39;103535.00;;;6.20
18474;BMP180;30265;52.408;13.500;2023-02-28T01:37:03;103528.00;;;6.10
18474;BMP180;30265;52.408;13.500;2023-02-28T01:47:26;103535.00;;;5.90
18474;BMP180;30265;52.408;13.500;2023-02-28T01:57:55;103528.00;;;6.00
18474;BMP180;30265;52.408;13.500;2023-02-28T02:08:20;103537.00;;;5.50
18474;BMP180;30265;52.408;13.500;2023-02-28T02:18:47;103543.00;;;5.40
18474;BMP180;30265;52.408;13.500;2023-02-28T02:29:40;103541.00;;;5.60
18474;BMP180;30265;52.408;13.500;2023-02-28T02:40:14;103534.00;;;5.30
18474;BMP180;30265;52.408;13.500;2023-02-28T02:50:43;103546.00;;;4.70
18474;BMP180;30265;52.408;13.500;2023-02-28T03:01:14;103560.00;;;4.60
18474;BMP180;30265;52.408;13.500;2023-02-28T03:11:59;103559.00;;;4.10
18474;BMP180;30265;52.408;13.500;2023-02-28T03:22:49;103566.00;;;4.30
18474;BMP180;30265;52.408;13.500;2023-02-28T03:33:14;103575.00;;;4.20
18474;BMP180;30265;52.408;13.500;2023-02-28T03:43:42;103584.00;;;3.90
18474;BMP180;30265;52.408;13.500;2023-02-28T03:54:08;103580.00;;;3.90
18474;BMP180;30265;52.408;13.500;2023-02-28T04:04:33;103588.00;;;3.70
18474;BMP180;30265;52.408;13.500;2023-02-28T04:14:55;103607.00;;;3.40
18474;BMP180;30265;52.408;13.500;2023-02-28T04:25:18;103598.00;;;3.70
18474;BMP180;30265;52.408;13.500;2023-02-28T04:35:42;103605.00;;;3.50
18474;BMP180;30265;52.408;13.500;2023-02-28T04:46:11;103622.00;;;3.30
18474;BMP180;30265;52.408;13.500;2023-02-28T04:56:33;103614.00;;;3.20
18474;BMP180;30265;52.408;13.500;2023-02-28T05:06:56;103632.00;;;2.90
18474;BMP180;30265;52.408;13.500;2023-02-28T05:17:18;103635.00;;;3.00
18474;BMP180;30265;52.408;13.500;2023-02-28T05:27:40;103644.00;;;2.80
18474;BMP180;30265;52.408;13.500;2023-02-28T05:38:02;103645.00;;;2.60
18474;BMP180;30265;52.408;13.500;2023-02-28T05:48:25;103649.00;;;2.60
18474;BMP180;30265;52.408;13.500;2023-02-28T05:58:47;103648.00;;;2.90
18474;BMP180;30265;52.408;13.500;2023-02-28T06:09:10;103637.00;;;3.10
18474;BMP180;30265;52.408;13.500;2023-02-28T06:19:31;103642.00;;;3.30
18474;BMP180;30265;52.408;13.500;2023-02-28T06:29:55;103646.00;;;3.80
18474;BMP180;30265;52.408;13.500;2023-02-28T06:40:17;103654.00;;;4.00
18474;BMP180;30265;52.408;13.500;2023-02-28T06:50:40;103642.00;;;4.90
18474;BMP180;30265;52.408;13.500;2023-02-28T07:01:02;103645.00;;;5.50
18474;BMP180;30265;52.408;13.500;2023-02-28T07:11:27;103636.00;;;5.60
18474;BMP180;30265;52.408;13.500;2023-02-28T07:21:49;103621.00;;;6.00
18474;BMP180;30265;52.408;13.500;2023-02-28T07:32:12;103631.00;;;6.60
18474;BMP180;30265;52.408;13.500;2023-02-28T07:42:34;103618.00;;;7.20
18474;BMP180;30265;52.408;13.500;2023-02-28T07:52:58;103614.00;;;7.10
18474;BMP180;30265;52.408;13.500;2023-02-28T08:03:22;103607.00;;;7.60
18474;BMP180;30265;52.408;13.500;2023-02-28T08:13:45;103598.00;;;8.70
18474;BMP180;30265;52.408;13.500;2023-02-28T08:24:07;103601.00;;;8.50
18474;BMP180;30265;52.408;13.500;2023-02-28T08:34:30;103596.00;;;8.50
18474;BMP180;30265;52.408;13.500;2023-02-28T08:44:52;103593.00;;;9.00
18474;BMP180;30265;52.408;13.500;2023-02-28T08:55:15;103581.00;;;9.20
18474;BMP180;30265;52.408;13.500;2023-02-28T09:05:36;103571.00;;;10.10
18474;BMP180;30265;52.408;13.500;2023-02-28T09:16:00;103572.00;;;10.40
18474;BMP180;30265;52.408;13.500;2023-02-28T09:26:23;103558.00;;;10.40
18474;BMP180;30265;52.408;13.500;2023-02-28T09:36:46;103550.00;;;11.10
18474;BMP180;30265;52.408;13.500;2023-02-28T09:47:14;103548.00;;;11.00
18474;BMP180;30265;52.408;13.500;2023-02-28T09:57:41;103550.00;;;11.30
18474;BMP180;30265;52.408;13.500;2023-02-28T10:08:11;103568.00;;;10.90
18474;BMP180;30265;52.408;13.500;2023-02-28T10:18:43;103566.00;;;10.50
18474;BMP180;30265;52.408;13.500;2023-02-28T10:29:08;103545.00;;;11.50
18474;BMP180;30265;52.408;13.500;2023-02-28T10:39:40;103537.00;;;12.40
18474;BMP180;30265;52.408;13.500;2023-02-28T10:50:02;103563.00;;;10.40
18474;BMP180;30265;52.408;13.500;2023-02-28T11:00:32;103538.00;;;11.00
18474;BMP180;30265;52.408;13.500;2023-02-28T11:10:55;103549.00;;;10.10
18474;BMP180;30265;52.408;13.500;2023-02-28T13:35:43;103388.00;;;12.60
18474;BMP180;30265;52.408;13.500;2023-02-28T13:46:11;103395.00;;;11.70
18474;BMP180;30265;52.408;13.500;2023-02-28T13:56:43;103408.00;;;11.00
18474;BMP180;30265;52.408;13.500;2023-02-28T14:07:15;103389.00;;;11.30
18474;BMP180;30265;52.408;13.500;2023-02-28T14:17:40;103344.00;;;13.60
18474;BMP180;30265;52.408;13.500;2023-02-28T14:28:11;103384.00;;;12.20
18474;BMP180;30265;52.408;13.500;2023-02-28T14:38:41;103385.00;;;12.10
18474;BMP180;30265;52.408;13.500;2023-02-28T14:49:05;103388.00;;;11.40
18474;BMP180;30265;52.408;13.500;2023-02-28T14:59:31;103367.00;;;12.30
18474;BMP180;30265;52.408;13.500;2023-02-28T15:10:07;103382.00;;;11.10
18474;BMP180;30265;52.408;13.500;2023-02-28T15:20:31;103370.00;;;11.40
18474;BMP180;30265;52.408;13.500;2023-02-28T15:30:55;103376.00;;;10.80
18474;BMP180;30265;52.408;13.500;2023-02-28T15:41:29;103370.00;;;11.10
18474;BMP180;30265;52.408;13.500;2023-02-28T15:51:53;103388.00;;;10.40
18474;BMP180;30265;52.408;13.500;2023-02-28T16:02:25;103379.00;;;11.00
18474;BMP180;30265;52.408;13.500;2023-02-28T16:12:54;103393.00;;;10.40
18474;BMP180;30265;52.408;13.500;2023-02-28T16:23:19;103417.00;;;9.80
18474;BMP180;30265;52.408;13.500;2023-02-28T16:33:40;103424.00;;;9.60
18474;BMP180;30265;52.408;13.500;2023-02-28T16:44:09;103431.00;;;9.20
18474;BMP180;30265;52.408;13.500;2023-02-28T16:54:32;103426.00;;;8.90
18474;BMP180;30265;52.408;13.500;2023-02-28T17:04:55;103443.00;;;8.60
18474;BMP180;30265;52.408;13.500;2023-02-28T17:15:18;103458.00;;;8.20
18474;BMP180;30265;52.408;13.500;2023-02-28T17:25:41;103455.00;;;8.60
18474;BMP180;30265;52.408;13.500;2023-02-28T17:36:21;103473.00;;;7.70
18474;BMP180;30265;52.408;13.500;2023-02-28T17:46:46;103477.00;;;7.60
18474;BMP180;30265;52.408;13.500;2023-02-28T17:57:12;103480.00;;;7.50
18474;BMP180;30265;52.408;13.500;2023-02-28T18:07:36;103491.00;;;7.10
18474;BMP180;30265;52.408;13.500;2023-02-28T18:17:58;103507.00;;;6.20
18474;BMP180;30265;52.408;13.500;2023-02-28T18:28:22;103512.00;;;5.80
18474;BMP180;30265;52.408;13.500;2023-02-28T18:38:44;103522.00;;;5.70
18474;BMP180;30265;52.408;13.500;2023-02-28T18:49:07;103517.00;;;5.70
18474;BMP180;30265;52.408;13.500;2023-02-28T18:59:29;103537.00;;;5.90
18474;BMP180;30265;52.408;13.500;2023-02-28T19:09:52;103530.00;;;6.20
18474;BMP180;30265;52.408;13.500;2023-02-28T19:20:14;103530.00;;;5.40
18474;BMP180;30265;52.408;13.500;2023-02-28T19:30:38;103551.00;;;4.80
18474;BMP180;30265;52.408;13.500;2023-02-28T19:41:00;103563.00;;;4.90
18474;BMP180;30265;52.408;13.500;2023-02-28T19:51:23;103561.00;;;4.60
18474;BMP180;30265;52.408;13.500;2023-02-28T20:01:47;103561.00;;;4.40
18474;BMP180;30265;52.408;13.500;2023-02-28T20:12:10;103559.00;;;4.00
18474;BMP180;30265;52.408;13.500;2023-02-28T20:22:43;103563.00;;;4.30
18474;BMP180;30265;52.408;13.500;2023-02-28T20:33:06;103561.00;;;4.00
18474;BMP180;30265;52.408;13.500;2023-02-28T20:43:27;103556.00;;;4.00
18474;BMP180;30265;52.408;13.500;2023-02-28T20:53:51;103569.00;;;3.70
18474;BMP180;30265;52.408;13.500;2023-02-28T21:04:13;103551.00;;;3.30
18474;BMP180;30265;52.408;13.500;2023-02-28T21:14:35;103565.00;;;3.30
18474;BMP180;30265;52.408;13.500;2023-02-28T21:24:57;103554.00;;;3.20
18474;BMP180;30265;52.408;13.500;2023-02-28T21:35:20;103554.00;;;3.60
18474;BMP180;30265;52.408;13.500;2023-02-28T21:45:42;103566.00;;;3.20
18474;BMP180;30265;52.408;13.500;2023-02-28T21:56:06;103561.00;;;3.30
18474;BMP180;30265;52.408;13.500;2023-02-28T22:06:30;103570.00;;;3.40
18474;BMP180;30265;52.408;13.500;2023-02-28T22:16:54;103565.00;;;3.30
18474;BMP180;30265;52.408;13.500;2023-02-28T22:27:18;103577.00;;;2.90
18474;BMP180;30265;52.408;13.500;2023-02-28T22:37:41;103590.00;;;3.00
18474;BMP180;30265;52.408;13.500;2023-02-28T22:48:02;103584.00;;;3.40
18474;BMP180;30265;52.408;13.500;2023-02-28T22:58:27;103589.00;;;3.10
18474;BMP180;30265;52.408;13.500;2023-02-28T23:08:50;103595.00;;;3.20
18474;BMP180;30265;52.408;13.500;2023-02-28T23:19:17;103603.00;;;3.40
18474;BMP180;30265;52.408;13.500;2023-02-28T23:29:39;103622.00;;;3.00
18474;BMP180;30265;52.408;13.500;2023-02-28T23:40:04;103622.00;;;2.80
18474;BMP180;30265;52.408;13.500;2023-02-28T23:50:27;103603.00;;;2.80
